Time;durP1;ratioP1;P1;durP2;ratioP2;P2;SDS_P1;SDS_P2;PMS_P1;PMS_P2;Temp;Humidity;BMP_temperature;BMP_pressure;BME280_temperature;BME280_humidity;BME280_pressure;Samples;Min_cycle;Max_cycle;Signal;HPM_P1;HPM_P2
2024/03/06 00:00:47;;;;;;;5.83;5.23;;;8.40;1.00;;;;;;5117578;28;20223;-45
2024/03/06 00:03:13;;;;;;;7.40;5.23;;;8.40;1.00;;;;;;5118886;28;20187;-43
2024/03/06 00:05:38;;;;;;;5.40;4.77;;;8.40;1.00;;;;;;5119973;28;20191;-45
2024/03/06 00:08:04;;;;;;;5.37;4.50;;;8.40;1.00;;;;;;5099913;28;20232;-41
2024/03/06 00:10:30;;;;;;;6.47;5.80;;;8.40;1.00;;;;;;5117793;28;20246;-43
2024/03/06 00:12:56;;;;;;;6.53;5.30;;;8.40;1.00;;;;;;5101190;28;20459;-42
2024/03/06 00:15:21;;;;;;;6.83;5.47;;;8.40;1.00;;;;;;5119152;28;20569;-41
2024/03/06 00:17:47;;;;;;;1.97;1.73;;;8.40;1.00;;;;;;5117413;28;20496;-44
2024/03/06 00:20:13;;;;;;;5.20;2.30;;;10.00;1.00;;;;;;5080232;28;20211;-45
2024/03/06 00:22:39;;;;;;;3.00;2.10;;;10.90;1.00;;;;;;5116217;28;20418;-41
2024/03/06 00:25:05;;;;;;;3.57;2.33;;;11.90;1.00;;;;;;5117578;28;20829;-43
2024/03/06 00:27:31;;;;;;;6.00;2.30;;;12.90;1.00;;;;;;5116529;28;20176;-41
2024/03/06 00:29:58;;;;;;;5.43;2.60;;;13.70;99.90;;;;;;5117503;28;20421;-42
2024/03/06 00:32:23;;;;;;;4.23;2.77;;;14.40;1.00;;;;;;5099460;28;20194;-45
2024/03/06 00:34:49;;;;;;;3.30;2.37;;;14.90;99.90;;;;;;5117651;28;20417;-45
2024/03/06 00:37:15;;;;;;;3.43;2.37;;;15.40;65.80;;;;;;5117171;28;20180;-43
2024/03/06 00:39:40;;;;;;;3.63;2.50;;;15.80;99.90;;;;;;5116552;28;20295;-42
2024/03/06 00:42:08;;;;;;;4.20;2.27;;;16.10;1.00;;;;;;5118085;28;20545;-46
2024/03/06 00:44:34;;;;;;;4.50;2.57;;;16.40;1.00;;;;;;5098288;28;20473;-42
2024/03/06 00:47:00;;;;;;;3.93;2.50;;;16.60;99.90;;;;;;5117791;28;20414;-47
2024/03/06 00:49:26;;;;;;;4.50;3.00;;;16.80;1.00;;;;;;5116461;28;20453;-44
2024/03/06 00:51:51;;;;;;;2.80;2.47;;;16.90;1.00;;;;;;5117079;28;20188;-44
2024/03/06 00:54:17;;;;;;;3.80;2.50;;;17.10;99.90;;;;;;5117658;28;20179;-45
2024/03/06 00:56:43;;;;;;;3.40;2.63;;;17.20;99.90;;;;;;5116493;28;20626;-44
2024/03/06 00:59:08;;;;;;;3.33;2.30;;;17.20;99.90;;;;;;5116875;28;20310;-45
2024/03/06 01:01:34;;;;;;;2.87;2.47;;;17.30;99.90;;;;;;5117273;28;20266;-46
2024/03/06 01:04:00;;;;;;;4.40;3.67;;;17.40;41.30;;;;;;5117226;28;20193;-43
2024/03/06 01:06:25;;;;;;;3.87;3.20;;;17.40;10.50;;;;;;5115816;28;20175;-41
2024/03/06 01:08:51;;;;;;;3.63;3.33;;;17.20;1.00;;;;;;5117189;28;20245;-41
2024/03/06 01:11:16;;;;;;;4.03;3.63;;;16.70;1.00;;;;;;5117329;28;20504;-41
2024/03/06 01:13:42;;;;;;;3.60;3.23;;;16.00;1.00;;;;;;5117243;28;20461;-42
2024/03/06 01:16:08;;;;;;;4.13;3.60;;;15.10;1.00;;;;;;5116697;28;20187;-45
2024/03/06 01:18:34;;;;;;;3.93;3.57;;;14.40;1.00;;;;;;5117617;28;20258;-40
2024/03/06 01:20:59;;;;;;;4.47;4.07;;;13.80;1.00;;;;;;5120744;28;20212;-42
2024/03/06 01:23:25;;;;;;;4.30;3.90;;;13.20;1.00;;;;;;5120250;28;20209;-41
2024/03/06 01:25:51;;;;;;;5.23;4.13;;;12.70;1.00;;;;;;5120371;28;20168;-40
2024/03/06 01:28:17;;;;;;;4.00;3.60;;;12.30;1.00;;;;;;5119546;28;20248;-42
2024/03/06 01:30:43;;;;;;;5.03;4.53;;;12.00;1.00;;;;;;5119702;28;20184;-42
2024/03/06 01:33:09;;;;;;;4.43;4.00;;;11.60;1.00;;;;;;5121396;28;20441;-41
2024/03/06 01:35:35;;;;;;;4.33;3.73;;;11.40;67.60;;;;;;5121181;28;20803;-44
2024/03/06 01:38:01;;;;;;;4.23;3.73;;;11.20;99.90;;;;;;5120663;28;20517;-41
2024/03/06 01:40:28;;;;;;;4.27;3.87;;;11.00;99.90;;;;;;5102228;28;20439;-40
2024/03/06 01:42:54;;;;;;;5.77;4.40;;;10.80;99.90;;;;;;5120201;28;20775;-40
2024/03/06 01:45:20;;;;;;;4.43;3.70;;;10.60;1.00;;;;;;5120339;28;20827;-43
2024/03/06 01:47:45;;;;;;;5.00;4.30;;;10.50;1.00;;;;;;5120116;28;20175;-41
2024/03/06 01:50:11;;;;;;;4.70;4.20;;;10.40;1.00;;;;;;5120628;28;20749;-41
2024/03/06 01:52:38;;;;;;;3.90;3.60;;;10.20;44.00;;;;;;5118916;28;20171;-41
2024/03/06 01:55:05;;;;;;;4.20;3.80;;;10.10;99.90;;;;;;5120366;28;20425;-41
2024/03/06 01:57:31;;;;;;;4.47;4.00;;;10.10;99.90;;;;;;5084822;28;20448;-40
2024/03/06 01:59:57;;;;;;;3.80;3.30;;;10.00;1.00;;;;;;5101971;28;20644;-40
2024/03/06 02:02:23;;;;;;;5.00;4.33;;;9.90;1.00;;;;;;5101649;28;20444;-42
2024/03/06 02:04:48;;;;;;;4.23;3.60;;;9.80;18.50;;;;;;5119342;28;20402;-41
2024/03/06 02:07:14;;;;;;;4.40;4.00;;;9.70;99.90;;;;;;5077621;28;1170485;-42
2024/03/06 02:09:40;;;;;;;5.73;3.80;;;9.70;99.90;;;;;;5102638;28;20192;-44
2024/03/06 02:12:08;;;;;;;4.40;3.53;;;9.60;1.00;;;;;;5121921;28;20474;-42
2024/03/06 02:14:34;;;;;;;4.10;3.60;;;9.50;1.00;;;;;;5122244;28;20418;-42
2024/03/06 02:17:00;;;;;;;4.53;3.90;;;9.50;53.00;;;;;;5121037;28;20418;-43
2024/03/06 02:19:40;;;;;;;4.27;3.87;;;9.40;99.90;;;;;;5102274;28;20538;-44
2024/03/06 02:22:07;;;;;;;4.40;3.57;;;9.40;1.00;;;;;;5121147;28;20461;-40
2024/03/06 02:24:33;;;;;;;4.63;3.70;;;9.30;1.00;;;;;;5120914;28;20679;-41
2024/03/06 02:26:58;;;;;;;4.37;3.90;;;9.30;1.00;;;;;;5121702;28;20489;-41
2024/03/06 02:29:24;;;;;;;4.80;4.30;;;9.30;99.90;;;;;;5120404;28;20535;-43
2024/03/06 02:31:50;;;;;;;4.30;3.90;;;9.20;99.90;;;;;;5121125;28;20176;-41
2024/03/06 02:34:15;;;;;;;4.17;3.77;;;9.20;99.90;;;;;;5120787;28;20187;-42
2024/03/06 02:36:42;;;;;;;4.60;3.90;;;9.20;1.00;;;;;;5103016;28;20220;-44
2024/03/06 02:39:08;;;;;;;4.77;4.27;;;9.10;1.00;;;;;;5120398;28;20172;-40
2024/03/06 02:41:36;;;;;;;4.70;4.30;;;9.10;1.00;;;;;;5120414;28;20730;-41
2024/03/06 02:44:02;;;;;;;5.40;4.90;;;9.10;1.00;;;;;;5120442;28;20501;-41
2024/03/06 02:46:28;;;;;;;4.17;3.77;;;9.00;7.90;;;;;;5120241;28;20421;-40
2024/03/06 02:48:54;;;;;;;4.40;4.00;;;9.00;99.90;;;;;;5119344;28;20490;-43
2024/03/06 02:51:20;;;;;;;4.37;3.97;;;9.00;99.90;;;;;;5120242;28;20632;-43
2024/03/06 02:53:46;;;;;;;5.40;4.20;;;9.00;99.90;;;;;;5102563;28;20867;-43
2024/03/06 02:56:19;;;;;;;4.83;4.00;;;9.00;99.90;;;;;;5119834;28;20480;-41
2024/03/06 02:58:45;;;;;;;5.70;3.67;;;8.90;99.90;;;;;;5119780;28;20244;-42
2024/03/06 03:01:10;;;;;;;7.80;4.70;;;8.90;99.90;;;;;;5119411;28;20493;-40
2024/03/06 03:03:58;;;;;;;4.87;3.80;;;8.90;1.00;;;;;;5119918;28;20429;-41
2024/03/06 03:06:26;;;;;;;4.30;3.80;;;8.90;1.00;;;;;;5138148;27;20234;-42
2024/03/06 03:08:52;;;;;;;4.93;3.90;;;8.80;1.00;;;;;;5140149;27;20408;-41
2024/03/06 03:11:21;;;;;;;3.53;3.10;;;8.80;1.00;;;;;;5131593;27;20437;-45
2024/03/06 03:13:46;;;;;;;5.50;3.67;;;8.80;1.00;;;;;;5140409;27;20433;-40
2024/03/06 03:16:20;;;;;;;4.90;3.60;;;8.80;13.00;;;;;;5140616;27;20420;-42
2024/03/06 03:18:45;;;;;;;3.30;3.00;;;8.80;84.20;;;;;;5140550;27;20513;-41
2024/03/06 03:21:12;;;;;;;4.73;3.50;;;8.80;99.90;;;;;;5140158;27;20505;-40
2024/03/06 03:23:39;;;;;;;4.20;3.80;;;8.80;99.90;;;;;;5140309;27;20448;-41
2024/03/06 03:26:05;;;;;;;4.13;3.43;;;8.70;99.90;;;;;;5139943;27;20753;-40
2024/03/06 03:28:31;;;;;;;3.10;2.80;;;8.70;99.90;;;;;;5140481;27;20420;-41
2024/03/06 03:30:56;;;;;;;6.27;4.53;;;8.70;99.90;;;;;;5139886;27;20429;-42
2024/03/06 03:33:22;;;;;;;5.90;3.67;;;8.70;99.90;;;;;;5140532;27;20445;-42
2024/03/06 03:35:48;;;;;;;3.80;3.30;;;8.70;99.90;;;;;;5134073;27;20220;-43
2024/03/06 03:38:14;;;;;;;4.97;3.90;;;8.70;99.90;;;;;;5138278;27;20409;-42
2024/03/06 03:40:39;;;;;;;3.83;3.30;;;8.70;1.00;;;;;;5140154;27;20238;-41
2024/03/06 03:43:06;;;;;;;4.30;3.37;;;8.70;1.00;;;;;;5140110;27;20249;-42
2024/03/06 03:45:33;;;;;;;4.03;3.60;;;8.70;1.00;;;;;;5140390;27;20231;-41
2024/03/06 03:48:03;;;;;;;3.83;3.07;;;8.60;1.00;;;;;;5139348;27;20432;-42
2024/03/06 03:50:29;;;;;;;4.10;3.53;;;8.60;1.00;;;;;;5140063;27;20432;-43
2024/03/06 03:52:57;;;;;;;4.53;3.60;;;8.60;1.00;;;;;;5138862;27;20710;-40
2024/03/06 03:55:24;;;;;;;4.90;3.53;;;8.60;1.00;;;;;;5140047;27;20167;-40
2024/03/06 03:57:50;;;;;;;3.73;3.40;;;8.60;1.00;;;;;;5140113;27;20744;-43
2024/03/06 04:00:16;;;;;;;7.07;3.30;;;8.60;1.00;;;;;;5139955;27;20464;-40
2024/03/06 04:02:42;;;;;;;4.00;3.27;;;8.60;1.00;;;;;;5139119;27;20417;-41
2024/03/06 04:05:08;;;;;;;4.10;3.37;;;8.60;1.00;;;;;;5120682;27;20650;-42
2024/03/06 04:07:33;;;;;;;5.17;3.50;;;8.60;1.00;;;;;;5137760;27;20460;-41
2024/03/06 04:09:59;;;;;;;5.30;3.20;;;8.60;1.00;;;;;;5120423;27;20182;-42
2024/03/06 04:12:24;;;;;;;3.43;2.93;;;8.60;1.00;;;;;;5137890;27;20568;-41
2024/03/06 04:14:50;;;;;;;4.90;3.63;;;8.60;1.00;;;;;;5137220;27;20174;-41
2024/03/06 04:17:16;;;;;;;5.23;3.73;;;8.60;1.00;;;;;;5137084;27;20453;-41
2024/03/06 04:19:41;;;;;;;3.83;3.13;;;8.60;1.00;;;;;;5136995;27;20232;-42
2024/03/06 04:22:07;;;;;;;3.93;3.50;;;8.60;1.00;;;;;;5138137;27;20200;-42
2024/03/06 04:24:33;;;;;;;3.40;3.10;;;8.60;1.00;;;;;;5138508;27;20469;-44
2024/03/06 04:26:58;;;;;;;6.40;3.97;;;8.50;1.00;;;;;;5137681;27;20243;-41
2024/03/06 04:29:24;;;;;;;4.30;3.63;;;8.50;1.00;;;;;;5138624;27;20182;-41
2024/03/06 04:31:49;;;;;;;4.37;3.37;;;8.50;1.00;;;;;;5138142;27;20182;-42
2024/03/06 04:34:15;;;;;;;3.93;3.43;;;8.50;2.50;;;;;;5137488;27;20578;-44
2024/03/06 04:36:41;;;;;;;4.00;3.47;;;8.50;20.60;;;;;;5120096;27;20190;-41
2024/03/06 04:39:07;;;;;;;4.33;3.13;;;8.50;31.50;;;;;;5137606;27;20196;-43
2024/03/06 04:41:33;;;;;;;3.90;3.50;;;8.50;40.20;;;;;;5138378;27;20179;-45
2024/03/06 04:44:00;;;;;;;9.10;3.70;;;8.50;46.70;;;;;;5136915;28;20404;-43
2024/03/06 04:46:26;;;;;;;3.93;3.60;;;8.50;58.20;;;;;;5138254;28;20687;-43
2024/03/06 04:48:52;;;;;;;5.17;3.80;;;8.50;70.60;;;;;;5138608;28;20483;-43
2024/03/06 04:51:19;;;;;;;4.10;3.00;;;8.50;84.00;;;;;;5138875;28;20424;-41
2024/03/06 04:53:45;;;;;;;5.03;3.53;;;8.50;99.90;;;;;;5139066;27;20427;-42
2024/03/06 04:56:12;;;;;;;5.90;4.00;;;8.50;99.90;;;;;;5141342;27;20947;-42
2024/03/06 04:58:38;;;;;;;5.70;3.93;;;8.50;99.90;;;;;;5141022;27;20412;-42
2024/03/06 05:01:04;;;;;;;4.30;3.60;;;8.50;99.90;;;;;;5139228;27;20483;-42
2024/03/06 05:03:29;;;;;;;4.00;3.40;;;8.50;99.90;;;;;;5140047;27;20179;-41
2024/03/06 05:05:55;;;;;;;5.33;3.43;;;8.50;99.90;;;;;;5140077;27;20215;-43
2024/03/06 05:08:21;;;;;;;5.63;3.90;;;8.50;99.90;;;;;;5140647;27;20420;-42
2024/03/06 05:10:47;;;;;;;6.03;3.73;;;8.50;99.90;;;;;;5141957;27;20412;-42
2024/03/06 05:13:12;;;;;;;5.00;3.97;;;8.50;99.90;;;;;;5141287;27;20434;-42
2024/03/06 05:15:38;;;;;;;6.60;3.80;;;8.50;99.90;;;;;;5141868;27;20189;-43
2024/03/06 05:18:05;;;;;;;5.27;3.50;;;8.50;99.90;;;;;;5141074;27;20199;-44
2024/03/06 05:20:31;;;;;;;4.90;3.77;;;8.50;99.90;;;;;;5120774;28;20489;-41
2024/03/06 05:22:57;;;;;;;5.60;4.30;;;8.50;99.90;;;;;;5121329;28;20406;-44
2024/03/06 05:25:23;;;;;;;6.03;4.37;;;8.50;99.90;;;;;;5118901;28;20417;-43
2024/03/06 05:27:48;;;;;;;7.93;4.83;;;8.50;99.90;;;;;;5119499;28;20425;-44
2024/03/06 05:30:14;;;;;;;4.87;3.97;;;8.50;99.90;;;;;;5120434;28;20466;-44
2024/03/06 05:32:41;;;;;;;6.07;4.23;;;8.40;99.90;;;;;;5118980;27;20468;-41
2024/03/06 05:35:10;;;;;;;5.97;4.40;;;8.40;99.90;;;;;;5118990;28;20453;-42
2024/03/06 05:37:36;;;;;;;4.90;4.40;;;8.40;99.90;;;;;;5103009;28;20471;-44
2024/03/06 05:40:04;;;;;;;5.93;4.63;;;8.40;99.90;;;;;;5119941;28;20464;-42
2024/03/06 05:42:30;;;;;;;5.67;5.07;;;8.40;99.90;;;;;;5132508;27;20452;-42
2024/03/06 05:45:10;;;;;;;5.07;4.40;;;8.40;99.90;;;;;;5137377;27;20408;-43
2024/03/06 05:47:36;;;;;;;5.27;4.43;;;8.40;99.90;;;;;;5136641;27;20624;-43
2024/03/06 05:50:04;;;;;;;5.70;4.63;;;8.40;99.90;;;;;;5136162;27;20735;-41
2024/03/06 05:52:36;;;;;;;5.77;4.40;;;8.40;99.90;;;;;;5138222;27;20488;-42
2024/03/06 05:55:02;;;;;;;4.80;4.30;;;8.30;99.90;;;;;;5138199;27;20456;-41
2024/03/06 05:57:28;;;;;;;5.37;4.47;;;8.40;99.90;;;;;;5136496;27;20913;-41
2024/03/06 05:59:54;;;;;;;5.60;4.70;;;8.40;99.90;;;;;;5135794;27;20464;-42
2024/03/06 06:02:20;;;;;;;5.70;4.93;;;8.40;99.90;;;;;;5139475;27;20186;-45
2024/03/06 06:04:46;;;;;;;5.27;4.77;;;8.40;99.90;;;;;;5121629;27;20500;-47
2024/03/06 06:07:13;;;;;;;4.73;4.23;;;8.40;99.90;;;;;;5122198;27;20688;-41
2024/03/06 06:09:38;;;;;;;4.80;4.30;;;8.40;99.90;;;;;;5140091;27;20849;-43
2024/03/06 06:12:04;;;;;;;6.93;6.20;;;8.40;99.90;;;;;;5138741;27;20439;-42
2024/03/06 06:14:30;;;;;;;6.53;5.93;;;8.40;99.90;;;;;;5138550;27;20186;-43
2024/03/06 06:16:59;;;;;;;6.80;6.10;;;8.40;99.90;;;;;;5137601;27;20167;-44
2024/03/06 06:19:25;;;;;;;6.43;5.90;;;8.40;99.90;;;;;;5138179;27;20475;-41
2024/03/06 06:21:53;;;;;;;7.17;5.03;;;8.40;99.90;;;;;;5120463;27;20428;-42
2024/03/06 06:24:19;;;;;;;5.90;5.30;;;8.40;99.90;;;;;;5120574;27;20187;-44
2024/03/06 06:26:45;;;;;;;7.03;6.43;;;8.40;99.90;;;;;;5139690;27;20493;-43
2024/03/06 06:29:10;;;;;;;8.00;7.30;;;8.40;99.90;;;;;;5136150;27;20175;-42
2024/03/06 06:31:36;;;;;;;11.17;10.07;;;8.40;99.90;;;;;;5123420;27;20188;-41
2024/03/06 06:34:01;;;;;;;15.07;13.50;;;8.40;99.90;;;;;;5113182;28;20187;-43
2024/03/06 06:36:27;;;;;;;12.37;11.13;;;8.40;99.90;;;;;;5095145;28;20596;-45
2024/03/06 06:38:53;;;;;;;9.50;8.13;;;8.40;99.90;;;;;;5114939;27;20179;-41
2024/03/06 06:41:19;;;;;;;8.40;7.50;;;8.40;99.90;;;;;;5098469;28;20526;-42
2024/03/06 06:43:45;;;;;;;6.67;5.90;;;8.40;99.90;;;;;;5115359;28;20741;-41
2024/03/06 06:46:11;;;;;;;7.83;6.10;;;8.40;99.90;;;;;;5114658;28;20467;-43
2024/03/06 06:48:37;;;;;;;6.53;4.93;;;8.40;99.90;;;;;;5115792;28;20743;-45
2024/03/06 06:51:03;;;;;;;5.10;4.60;;;8.40;99.90;;;;;;5115454;28;20187;-43
2024/03/06 06:53:29;;;;;;;5.40;4.20;;;8.40;99.90;;;;;;5113160;28;20236;-41
2024/03/06 06:55:55;;;;;;;4.60;4.20;;;8.50;99.90;;;;;;5116492;28;20421;-41
2024/03/06 06:58:21;;;;;;;7.83;4.80;;;8.50;99.90;;;;;;5116091;28;20441;-42
2024/03/06 07:00:46;;;;;;;5.30;4.03;;;8.50;99.90;;;;;;5116969;28;20586;-41
2024/03/06 07:03:12;;;;;;;5.30;4.03;;;8.50;99.90;;;;;;5117840;28;20167;-41
2024/03/06 07:05:38;;;;;;;4.57;4.17;;;8.60;99.90;;;;;;5116477;28;20641;-41
2024/03/06 07:08:04;;;;;;;4.33;3.90;;;8.60;99.90;;;;;;5116113;28;20221;-42
2024/03/06 07:10:30;;;;;;;4.90;3.63;;;8.60;99.90;;;;;;5117361;28;20498;-41
2024/03/06 07:12:55;;;;;;;7.20;4.30;;;8.70;99.90;;;;;;5116745;28;20885;-41
2024/03/06 07:15:21;;;;;;;7.63;4.33;;;8.70;99.90;;;;;;5118071;28;20301;-42
2024/03/06 07:17:47;;;;;;;5.43;4.23;;;8.70;99.90;;;;;;5116783;28;20176;-42
2024/03/06 07:20:14;;;;;;;7.23;4.67;;;8.70;99.90;;;;;;5118621;28;20356;-41
2024/03/06 07:22:40;;;;;;;5.33;4.80;;;8.70;99.90;;;;;;5117133;28;20443;-41
2024/03/06 07:25:05;;;;;;;4.50;4.10;;;8.70;99.90;;;;;;5117187;28;20436;-42
2024/03/06 07:27:31;;;;;;;8.90;4.57;;;8.70;99.90;;;;;;5118604;28;20439;-41
2024/03/06 07:29:57;;;;;;;4.60;3.50;;;8.70;99.90;;;;;;5117853;28;20464;-42
2024/03/06 07:32:22;;;;;;;5.40;4.60;;;8.70;99.90;;;;;;5116778;28;20213;-42
2024/03/06 07:34:48;;;;;;;7.00;4.57;;;8.70;99.90;;;;;;5116492;28;20164;-42
2024/03/06 07:37:14;;;;;;;7.00;4.40;;;8.80;99.90;;;;;;5117723;28;20187;-43
2024/03/06 07:39:40;;;;;;;5.20;3.83;;;8.80;99.90;;;;;;5113903;28;20399;-41
2024/03/06 07:42:06;;;;;;;5.20;3.57;;;8.80;99.90;;;;;;5116611;28;20412;-43
2024/03/06 07:44:31;;;;;;;4.00;3.60;;;8.90;99.90;;;;;;5118137;28;20588;-41
2024/03/06 07:46:57;;;;;;;6.73;4.20;;;8.90;99.90;;;;;;5116684;28;20175;-41
2024/03/06 07:49:23;;;;;;;3.80;3.40;;;9.00;99.90;;;;;;5116570;28;20546;-43
2024/03/06 07:51:48;;;;;;;5.57;4.20;;;8.60;99.90;;;;;;5117082;28;20333;-42
2024/03/06 07:54:14;;;;;;;4.13;3.73;;;9.00;99.90;;;;;;5115822;28;20525;-41
2024/03/06 07:56:40;;;;;;;4.10;3.70;;;9.00;99.90;;;;;;5116550;28;20180;-42
2024/03/06 07:59:05;;;;;;;4.40;4.10;;;9.10;99.90;;;;;;5117352;28;20168;-47
2024/03/06 08:01:32;;;;;;;3.97;0.90;;;9.10;30.30;;;;;;5116067;28;20186;-43
2024/03/06 08:03:58;;;;;;;4.90;1.50;;;11.00;1.00;;;;;;5115516;28;20550;-45
2024/03/06 08:06:25;;;;;;;5.73;1.70;;;12.10;1.00;;;;;;5112528;28;20603;-44
2024/03/06 08:08:51;;;;;;;3.53;1.40;;;13.10;1.00;;;;;;5114110;28;20194;-45
2024/03/06 08:11:18;;;;;;;4.07;1.53;;;13.80;99.90;;;;;;5114733;28;20406;-44
2024/03/06 08:13:43;;;;;;;3.57;1.60;;;14.60;1.00;;;;;;5098301;28;20454;-47
2024/03/06 08:16:09;;;;;;;2.20;1.40;;;15.20;99.90;;;;;;5116504;28;20440;-45
2024/03/06 08:18:36;;;;;;;3.23;1.60;;;15.80;1.00;;;;;;5116622;28;20906;-43
2024/03/06 08:21:03;;;;;;;3.10;2.00;;;16.20;99.90;;;;;;5117947;28;20203;-43
2024/03/06 08:23:28;;;;;;;4.60;2.97;;;16.30;99.90;;;;;;5117759;28;20684;-43
2024/03/06 08:25:55;;;;;;;4.30;3.17;;;15.90;34.10;;;;;;5118792;28;20428;-44
2024/03/06 08:28:20;;;;;;;4.70;3.20;;;15.30;1.00;;;;;;5118253;28;20183;-45
2024/03/06 08:30:46;;;;;;;4.53;3.70;;;14.60;1.00;;;;;;5117280;28;20429;-44
2024/03/06 08:33:12;;;;;;;5.87;3.70;;;13.90;1.00;;;;;;5117035;28;20206;-43
2024/03/06 08:35:38;;;;;;;4.90;4.00;;;13.40;1.00;;;;;;5118523;28;20226;-42
2024/03/06 08:38:04;;;;;;;4.20;3.80;;;12.80;42.10;;;;;;5117265;28;20197;-44
2024/03/06 08:40:29;;;;;;;4.70;3.47;;;12.40;99.90;;;;;;5115523;28;20453;-42
2024/03/06 08:42:56;;;;;;;5.50;3.67;;;12.00;1.00;;;;;;5114533;28;20719;-43
2024/03/06 08:45:23;;;;;;;5.07;4.00;;;11.80;20.30;;;;;;5114895;28;20425;-42
2024/03/06 08:47:49;;;;;;;4.67;3.60;;;11.60;99.90;;;;;;5113552;28;20443;-44
2024/03/06 08:50:15;;;;;;;3.80;2.97;;;11.50;1.00;;;;;;5116316;28;20737;-42
2024/03/06 08:52:41;;;;;;;3.57;3.20;;;11.50;8.30;;;;;;5113897;28;20426;-42
2024/03/06 08:55:07;;;;;;;6.90;4.57;;;11.50;99.90;;;;;;5115293;28;20708;-42
2024/03/06 08:57:34;;;;;;;4.33;3.57;;;11.50;99.90;;;;;;5116004;28;20453;-42
2024/03/06 08:59:59;;;;;;;4.17;3.30;;;11.50;99.90;;;;;;5114288;28;20960;-42
2024/03/06 09:02:25;;;;;;;3.77;3.10;;;11.50;99.90;;;;;;5116230;28;20477;-44
2024/03/06 09:04:52;;;;;;;3.97;3.50;;;11.50;99.90;;;;;;5115845;28;20314;-42
2024/03/06 09:07:18;;;;;;;6.57;4.13;;;11.40;99.90;;;;;;5117498;28;20437;-43
2024/03/06 09:09:44;;;;;;;6.90;3.23;;;11.30;99.90;;;;;;5116646;28;20448;-44
2024/03/06 09:12:10;;;;;;;3.60;3.30;;;11.20;99.90;;;;;;5117924;28;20431;-42
2024/03/06 09:14:37;;;;;;;3.67;3.33;;;11.10;1.00;;;;;;5119467;28;20191;-41
2024/03/06 09:17:03;;;;;;;3.87;3.47;;;11.10;1.00;;;;;;5117356;28;20421;-43
2024/03/06 09:19:29;;;;;;;6.50;3.77;;;11.00;99.90;;;;;;5114481;28;20455;-42
2024/03/06 09:21:54;;;;;;;4.60;3.03;;;10.90;99.90;;;;;;5114825;28;20456;-44
2024/03/06 09:24:21;;;;;;;3.87;3.23;;;10.80;99.90;;;;;;5116875;28;20457;-43
2024/03/06 09:26:48;;;;;;;3.87;3.23;;;10.70;1.00;;;;;;5116411;28;20233;-42
2024/03/06 09:29:13;;;;;;;5.07;3.80;;;10.60;58.00;;;;;;5115793;28;20470;-44
2024/03/06 09:31:39;;;;;;;4.97;3.90;;;10.50;99.90;;;;;;5110009;28;20734;-42
2024/03/06 09:34:05;;;;;;;3.60;1.40;;;10.40;1.00;;;;;;5114539;28;20198;-45
2024/03/06 09:36:32;;;;;;;4.10;2.07;;;11.70;1.00;;;;;;5114692;28;20183;-46
2024/03/06 09:39:03;;;;;;;3.50;1.67;;;12.90;99.90;;;;;;5113047;28;20156;-42
2024/03/06 09:41:30;;;;;;;5.87;2.97;;;13.50;48.90;;;;;;5120143;28;20469;-41
2024/03/06 09:43:55;;;;;;;3.57;2.87;;;13.60;99.90;;;;;;5101313;28;20830;-42
2024/03/06 09:46:21;;;;;;;6.13;4.73;;;13.50;18.90;;;;;;5121240;28;20191;-43
2024/03/06 09:48:48;;;;;;;8.03;4.30;;;13.10;1.00;;;;;;5120087;28;20179;-43
2024/03/06 09:51:13;;;;;;;4.93;3.90;;;12.70;1.00;;;;;;5117245;28;20171;-44
2024/03/06 09:53:39;;;;;;;4.73;4.20;;;12.30;1.00;;;;;;5118205;28;20734;-42
2024/03/06 09:56:05;;;;;;;4.40;4.10;;;12.00;1.00;;;;;;5120313;28;20175;-43
2024/03/06 09:58:32;;;;;;;4.27;3.90;;;11.70;1.00;;;;;;5120245;28;20440;-43
2024/03/06 10:01:00;;;;;;;5.30;4.30;;;11.50;99.90;;;;;;5119089;28;20469;-43
2024/03/06 10:03:25;;;;;;;5.30;4.80;;;11.40;1.00;;;;;;5115954;28;20421;-41
2024/03/06 10:05:51;;;;;;;6.77;5.50;;;11.20;26.60;;;;;;5117231;28;20486;-42
2024/03/06 10:08:17;;;;;;;4.80;4.30;;;11.20;99.90;;;;;;5115850;28;20176;-42
2024/03/06 10:10:43;;;;;;;5.00;4.30;;;11.10;1.00;;;;;;5116827;28;20180;-42
2024/03/06 10:13:09;;;;;;;6.37;5.77;;;11.10;1.00;;;;;;5099890;28;20234;-42
2024/03/06 10:15:36;;;;;;;6.53;5.93;;;11.00;1.00;;;;;;5098620;28;20552;-43
2024/03/06 10:18:15;;;;;;;5.80;5.30;;;11.00;59.10;;;;;;5116932;28;20485;-42
2024/03/06 10:20:44;;;;;;;7.37;6.33;;;11.00;99.90;;;;;;5120761;28;20897;-43
2024/03/06 10:23:10;;;;;;;8.03;7.23;;;10.90;99.90;;;;;;5119455;28;20413;-41
2024/03/06 10:25:36;;;;;;;5.27;4.77;;;10.90;93.40;;;;;;5118961;28;20424;-41
2024/03/06 10:28:12;;;;;;;7.27;5.87;;;10.80;99.90;;;;;;5119239;28;20733;-41
2024/03/06 10:30:45;;;;;;;6.63;6.03;;;10.80;99.90;;;;;;5117447;28;20184;-43
2024/03/06 10:33:12;;;;;;;7.80;5.80;;;10.70;99.90;;;;;;5114644;28;20711;-42
2024/03/06 10:35:39;;;;;;;9.83;5.73;;;10.70;1.00;;;;;;5117467;28;20429;-43
2024/03/06 10:38:07;;;;;;;9.00;6.40;;;10.60;1.00;;;;;;5116670;28;20947;-42
2024/03/06 10:40:35;;;;;;;7.60;6.60;;;10.60;1.00;;;;;;5119433;28;20465;-42
2024/03/06 10:43:03;;;;;;;7.53;6.83;;;10.50;12.00;;;;;;5117866;28;20687;-42
2024/03/06 10:45:43;;;;;;;7.60;6.87;;;10.40;25.50;;;;;;5116942;28;20504;-42
2024/03/06 10:48:11;;;;;;;8.30;7.60;;;10.30;99.90;;;;;;5100005;28;20425;-42
2024/03/06 10:50:44;;;;;;;8.27;7.47;;;10.30;99.90;;;;;;5116338;28;20485;-42
2024/03/06 10:53:11;;;;;;;8.60;7.80;;;10.30;99.90;;;;;;5116398;28;20474;-42
2024/03/06 10:55:37;;;;;;;7.60;6.97;;;10.30;99.90;;;;;;5117031;28;20406;-41
2024/03/06 10:58:09;;;;;;;8.13;7.43;;;10.30;99.90;;;;;;5113998;28;20417;-42
2024/03/06 11:00:40;;;;;;;9.37;8.37;;;10.30;99.90;;;;;;5115954;28;20465;-43
2024/03/06 11:03:11;;;;;;;10.00;8.00;;;10.40;99.90;;;;;;5114833;28;20896;-42
2024/03/06 11:05:41;;;;;;;9.00;8.10;;;10.50;99.90;;;;;;5117475;28;20469;-42
2024/03/06 11:08:11;;;;;;;9.73;8.83;;;10.50;99.90;;;;;;5116863;28;20492;-43
2024/03/06 11:10:38;;;;;;;10.60;9.50;;;10.50;99.90;;;;;;5119518;28;20418;-42
2024/03/06 11:13:08;;;;;;;9.87;8.87;;;10.60;99.90;;;;;;5119032;28;20764;-42
2024/03/06 11:15:34;;;;;;;10.37;9.37;;;10.60;99.90;;;;;;5118545;28;20496;-44
2024/03/06 11:18:28;;;;;;;9.97;9.07;;;10.60;99.90;;;;;;5117497;28;20508;-41
2024/03/06 11:21:02;;;;;;;10.60;9.60;;;10.60;99.90;;;;;;5115305;28;20310;-41
2024/03/06 11:23:31;;;;;;;11.17;10.17;;;10.60;99.90;;;;;;5114588;28;20425;-44
2024/03/06 11:26:03;;;;;;;11.23;10.20;;;10.60;99.90;;;;;;5107279;27;20421;-43
2024/03/06 11:28:31;;;;;;;11.47;9.87;;;10.70;99.90;;;;;;5138011;27;20420;-42
2024/03/06 11:31:01;;;;;;;12.67;11.50;;;10.70;99.90;;;;;;5136647;27;20767;-42
2024/03/06 11:33:40;;;;;;;11.70;10.70;;;10.70;99.90;;;;;;5138077;27;20501;-41
2024/03/06 11:36:28;;;;;;;11.73;10.73;;;10.70;99.90;;;;;;5136660;27;20465;-51
2024/03/06 11:39:06;;;;;;;11.47;10.00;;;10.70;99.90;;;;;;5135486;27;20500;-41
2024/03/06 11:41:44;;;;;;;11.97;10.77;;;10.70;99.90;;;;;;5134732;27;20462;-41
2024/03/06 11:44:17;;;;;;;13.53;12.20;;;10.70;99.90;;;;;;5135157;27;20501;-42
2024/03/06 11:47:07;;;;;;;12.90;11.70;;;10.60;99.90;;;;;;5135252;27;20432;-42
2024/03/06 11:49:33;;;;;;;14.27;12.80;;;10.60;99.90;;;;;;5136677;27;20447;-41
2024/03/06 11:52:08;;;;;;;15.23;13.70;;;10.50;99.90;;;;;;5102936;27;20857;-42
2024/03/06 11:54:34;;;;;;;13.73;12.33;;;10.50;99.90;;;;;;5135950;27;20434;-42
2024/03/06 11:57:02;;;;;;;14.57;13.27;;;10.40;99.90;;;;;;5100742;27;20484;-43
2024/03/06 11:59:40;;;;;;;14.27;12.87;;;10.40;1.00;;;;;;5135176;27;20432;-42
2024/03/06 12:02:07;;;;;;;16.60;13.57;;;10.30;1.00;;;;;;5117617;27;20423;-43
2024/03/06 12:04:35;;;;;;;13.90;12.50;;;10.30;1.00;;;;;;5113775;28;20474;-43
2024/03/06 12:07:05;;;;;;;14.70;13.30;;;10.30;1.00;;;;;;5115370;28;20414;-43
2024/03/06 12:09:35;;;;;;;14.07;12.67;;;10.30;1.00;;;;;;5098358;28;20433;-43
2024/03/06 12:12:01;;;;;;;13.70;12.40;;;10.30;1.00;;;;;;5115951;28;20422;-41
2024/03/06 12:14:27;;;;;;;12.60;11.37;;;10.30;1.00;;;;;;5115188;28;20699;-42
2024/03/06 12:16:57;;;;;;;14.53;13.10;;;10.40;1.00;;;;;;5111488;28;20398;-41
2024/03/06 12:19:26;;;;;;;12.40;11.20;;;10.40;1.00;;;;;;5114582;28;20259;-43
2024/03/06 12:21:53;;;;;;;13.60;12.30;;;10.40;1.00;;;;;;5113271;28;20429;-43
2024/03/06 12:24:19;;;;;;;13.07;11.77;;;10.50;1.00;;;;;;5114586;28;20498;-41
2024/03/06 12:26:48;;;;;;;14.43;12.93;;;10.50;1.00;;;;;;5106416;28;20539;-41
2024/03/06 12:29:17;;;;;;;13.57;12.20;;;10.50;1.00;;;;;;5095009;28;20407;-42
2024/03/06 12:31:44;;;;;;;14.67;12.80;;;10.50;1.00;;;;;;5093833;28;20792;-43
2024/03/06 12:34:14;;;;;;;15.77;13.50;;;10.50;1.00;;;;;;5094248;28;20500;-43
2024/03/06 12:36:40;;;;;;;14.37;12.97;;;10.50;1.00;;;;;;5091036;28;20430;-43
2024/03/06 12:39:12;;;;;;;15.40;13.90;;;10.50;1.00;;;;;;5091693;28;20728;-44
2024/03/06 12:41:41;;;;;;;7.63;5.87;;;10.50;1.00;;;;;;5093028;28;20569;-41
2024/03/06 12:44:07;;;;;;;9.23;6.00;;;10.70;99.90;;;;;;5093083;28;20407;-42
2024/03/06 12:46:32;;;;;;;26.80;20.07;;;11.50;1.00;;;;;;5092898;28;20709;-44
2024/03/06 12:48:58;;;;;;;28.70;22.00;;;12.10;99.90;;;;;;5094003;28;20168;-43
2024/03/06 12:51:24;;;;;;;26.63;18.43;;;12.40;99.90;;;;;;5093876;28;20202;-43